Time;durP1;ratioP1;P1;durP2;ratioP2;P2;SDS_P1;SDS_P2;PMS_P1;PMS_P2;Temp;Humidity;BMP_temperature;BMP_pressure;BME280_temperature;BME280_humidity;BME280_pressure;Samples;Min_cycle;Max_cycle;Signal;HPM_P1;HPM_P2
2021/06/14 00:03:09;;;;;;;8.03;2.43;;;;;;;;;;20826662;28;20212;-65
2021/06/14 00:13:10;;;;;;;5.97;2.37;;;;;;;;;;20826821;28;20219;-62
2021/06/14 00:23:10;;;;;;;11.45;2.50;;;;;;;;;;20825979;28;20216;-61
2021/06/14 00:33:12;;;;;;;5.73;2.37;;;;;;;;;;20862282;28;20212;-68
2021/06/14 00:43:13;;;;;;;4.43;2.50;;;;;;;;;;20906719;28;20228;-60
2021/06/14 00:53:24;;;;;;;6.73;2.93;;;;;;;;;;20906361;28;20220;-60
2021/06/14 01:03:25;;;;;;;5.83;2.47;;;;;;;;;;20919910;28;21390;-60
2021/06/14 01:13:25;;;;;;;6.18;2.85;;;;;;;;;;20904514;28;20227;-61
2021/06/14 01:23:26;;;;;;;3.50;2.27;;;;;;;;;;20904393;28;20216;-59
2021/06/14 01:33:27;;;;;;;7.03;2.53;;;;;;;;;;20903742;28;20729;-60
2021/06/14 01:43:30;;;;;;;5.03;2.40;;;;;;;;;;20903401;28;20619;-60
2021/06/14 01:53:30;;;;;;;4.43;2.77;;;;;;;;;;20903203;28;20641;-63
2021/06/14 02:03:32;;;;;;;7.53;3.17;;;;;;;;;;20902872;28;20246;-60
2021/06/14 02:13:34;;;;;;;9.80;2.80;;;;;;;;;;20902252;28;20220;-59
2021/06/14 02:23:34;;;;;;;4.13;2.37;;;;;;;;;;20907766;28;20211;-60
2021/06/14 02:33:34;;;;;;;3.80;2.20;;;;;;;;;;20917267;28;21586;-60
2021/06/14 02:43:35;;;;;;;5.03;2.07;;;;;;;;;;20916157;28;20494;-74
2021/06/14 02:53:36;;;;;;;5.93;2.50;;;;;;;;;;20914212;28;20833;-64
2021/06/14 03:03:39;;;;;;;3.43;2.20;;;;;;;;;;20914701;28;20962;-60
2021/06/14 03:13:46;;;;;;;2.83;1.90;;;;;;;;;;20913950;28;20234;-61
2021/06/14 03:23:50;;;;;;;3.20;1.80;;;;;;;;;;20913207;28;20197;-69
2021/06/14 03:33:50;;;;;;;3.77;1.90;;;;;;;;;;20951012;28;20280;-60
2021/06/14 03:43:51;;;;;;;3.93;2.27;;;;;;;;;;20925033;28;20211;-58
2021/06/14 03:53:57;;;;;;;4.17;2.40;;;;;;;;;;20970582;28;20473;-58
2021/06/14 04:14:33;;;;;;;5.17;2.57;;;;;;;;;;20915762;28;20252;-63
2021/06/14 04:24:33;;;;;;;4.37;2.43;;;;;;;;;;20925699;28;20514;-59
2021/06/14 04:34:34;;;;;;;4.33;2.03;;;;;;;;;;20944394;28;20227;-58
2021/06/14 04:44:34;;;;;;;6.60;3.77;;;;;;;;;;20986612;28;20206;-62
2021/06/14 04:54:34;;;;;;;6.07;2.60;;;;;;;;;;20875615;28;20231;-62
2021/06/14 05:04:35;;;;;;;8.20;3.10;;;;;;;;;;20858641;28;20245;-64
2021/06/14 05:14:35;;;;;;;4.37;2.60;;;;;;;;;;20856829;28;20766;-58
2021/06/14 05:24:36;;;;;;;5.87;2.90;;;;;;;;;;20882007;28;20213;-63
2021/06/14 05:34:36;;;;;;;6.90;2.80;;;;;;;;;;20886197;28;20531;-64
2021/06/14 05:44:37;;;;;;;6.50;2.53;;;;;;;;;;20875219;28;20211;-60
2021/06/14 05:54:38;;;;;;;6.00;2.30;;;;;;;;;;20923146;28;20227;-70
2021/06/14 06:04:38;;;;;;;5.10;1.70;;;;;;;;;;20882476;28;20229;-58
2021/06/14 06:14:38;;;;;;;3.43;1.90;;;;;;;;;;20904049;28;20839;-58
2021/06/14 06:24:39;;;;;;;2.50;1.73;;;;;;;;;;20885076;28;20217;-58
2021/06/14 06:34:39;;;;;;;6.07;2.50;;;;;;;;;;20903865;28;21039;-61
2021/06/14 06:44:40;;;;;;;2.60;1.40;;;;;;;;;;20890608;28;20218;-59
2021/06/14 06:54:40;;;;;;;3.23;1.50;;;;;;;;;;20894006;28;20688;-58
2021/06/14 07:04:41;;;;;;;1.27;1.10;;;;;;;;;;20896678;28;20725;-58
2021/06/14 07:14:42;;;;;;;7.77;1.80;;;;;;;;;;20885847;28;20315;-58
2021/06/14 07:24:42;;;;;;;3.03;1.37;;;;;;;;;;20901889;28;20272;-58
2021/06/14 07:34:42;;;;;;;2.37;1.30;;;;;;;;;;20878019;28;20223;-58
2021/06/14 07:44:43;;;;;;;4.10;1.30;;;;;;;;;;20900101;28;20215;-68
2021/06/14 07:54:43;;;;;;;2.63;1.50;;;;;;;;;;20910119;28;20223;-63
2021/06/14 08:04:43;;;;;;;2.70;1.37;;;;;;;;;;20897128;28;20206;-59
2021/06/14 08:14:44;;;;;;;2.63;1.60;;;;;;;;;;20884291;28;20212;-58
2021/06/14 08:35:04;;;;;;;2.47;1.70;;;;;;;;;;20888512;28;20294;-58
2021/06/14 08:45:06;;;;;;;2.10;1.43;;;;;;;;;;20879709;28;20214;-58
2021/06/14 08:55:08;;;;;;;2.37;1.57;;;;;;;;;;20894846;28;20617;-58
2021/06/14 09:05:08;;;;;;;4.80;1.80;;;;;;;;;;20871617;28;20293;-58
2021/06/14 09:15:10;;;;;;;2.50;1.53;;;;;;;;;;20893070;28;20222;-58
2021/06/14 09:25:11;;;;;;;1.27;1.03;;;;;;;;;;20870952;28;20495;-58
2021/06/14 09:35:15;;;;;;;1.40;1.30;;;;;;;;;;20890875;28;20315;-58
2021/06/14 09:45:21;;;;;;;2.60;1.40;;;;;;;;;;20877052;28;20852;-59
2021/06/14 09:55:28;;;;;;;2.30;1.57;;;;;;;;;;20884935;28;20223;-63
2021/06/14 10:05:28;;;;;;;4.27;1.43;;;;;;;;;;20905433;28;20692;-59
2021/06/14 10:15:30;;;;;;;3.40;1.53;;;;;;;;;;20876127;28;20227;-72
2021/06/14 10:25:31;;;;;;;2.53;1.40;;;;;;;;;;20890531;28;20208;-59
2021/06/14 10:35:32;;;;;;;2.63;1.47;;;;;;;;;;20867194;28;20228;-64
2021/06/14 10:45:33;;;;;;;2.97;1.40;;;;;;;;;;20896316;28;20213;-59
2021/06/14 10:55:35;;;;;;;1.73;1.60;;;;;;;;;;20881853;28;20219;-59
2021/06/14 11:05:42;;;;;;;1.60;1.20;;;;;;;;;;20903339;28;20568;-61
2021/06/14 11:15:44;;;;;;;2.23;1.00;;;;;;;;;;20885644;28;20219;-58
2021/06/14 11:25:44;;;;;;;2.50;1.40;;;;;;;;;;20895451;28;20239;-58
2021/06/14 11:35:46;;;;;;;5.97;1.50;;;;;;;;;;20924348;28;20335;-58
2021/06/14 11:45:47;;;;;;;1.87;1.40;;;;;;;;;;20886584;28;20207;-58
2021/06/14 11:55:48;;;;;;;3.67;1.90;;;;;;;;;;20898718;28;20223;-59
2021/06/14 12:05:49;;;;;;;2.93;1.50;;;;;;;;;;20876205;28;20581;-60
2021/06/14 12:15:51;;;;;;;3.60;1.53;;;;;;;;;;20897778;28;20223;-65
2021/06/14 12:25:52;;;;;;;3.60;1.47;;;;;;;;;;20873959;28;20238;-73
2021/06/14 12:35:53;;;;;;;1.80;1.20;;;;;;;;;;20895536;28;20855;-66
2021/06/14 12:45:55;;;;;;;2.30;1.50;;;;;;;;;;20877746;28;20235;-69
2021/06/14 12:55:56;;;;;;;4.87;1.53;;;;;;;;;;20889469;28;20720;-59
2021/06/14 13:05:57;;;;;;;3.97;1.47;;;;;;;;;;20883678;28;20337;-66
2021/06/14 13:16:04;;;;;;;3.37;1.53;;;;;;;;;;20880704;28;20247;-59
2021/06/14 13:26:04;;;;;;;2.70;1.33;;;;;;;;;;20891730;28;20758;-62
2021/06/14 13:36:05;;;;;;;3.40;1.40;;;;;;;;;;20868784;28;20219;-58
2021/06/14 13:46:05;;;;;;;1.73;1.30;;;;;;;;;;20891431;28;20696;-59
2021/06/14 13:56:07;;;;;;;1.20;1.00;;;;;;;;;;20869082;28;20684;-58
2021/06/14 14:06:07;;;;;;;2.40;1.20;;;;;;;;;;20890262;28;20688;-59
2021/06/14 14:16:07;;;;;;;2.37;1.13;;;;;;;;;;20872940;28;20231;-58
2021/06/14 14:26:09;;;;;;;1.30;1.17;;;;;;;;;;20933403;28;20203;-60
2021/06/14 14:36:13;;;;;;;1.53;1.00;;;;;;;;;;20895184;28;20888;-61
2021/06/14 14:46:15;;;;;;;2.70;1.20;;;;;;;;;;20892619;28;20231;-59
2021/06/14 14:56:16;;;;;;;1.17;1.00;;;;;;;;;;20902153;28;20295;-60
2021/06/14 15:06:16;;;;;;;1.73;1.37;;;;;;;;;;20881883;28;20206;-61
2021/06/14 15:16:17;;;;;;;1.73;1.40;;;;;;;;;;20914109;28;20223;-60
2021/06/14 15:26:20;;;;;;;2.60;1.10;;;;;;;;;;20913139;28;20771;-69
2021/06/14 15:36:20;;;;;;;1.83;1.30;;;;;;;;;;20911805;28;20231;-72
2021/06/14 15:46:21;;;;;;;1.20;0.97;;;;;;;;;;20910184;28;20207;-68
2021/06/14 15:56:22;;;;;;;1.07;0.90;;;;;;;;;;20892214;28;20231;-59
2021/06/14 16:06:22;;;;;;;1.33;0.87;;;;;;;;;;20856664;28;20507;-59
2021/06/14 16:16:23;;;;;;;1.00;1.00;;;;;;;;;;20820628;28;20231;-68
2021/06/14 16:26:23;;;;;;;1.20;0.87;;;;;;;;;;20874266;28;20742;-58
2021/06/14 16:36:24;;;;;;;2.20;1.00;;;;;;;;;;20895284;28;20693;-59
2021/06/14 16:46:24;;;;;;;4.87;1.10;;;;;;;;;;20891761;28;20223;-60
2021/06/14 16:56:25;;;;;;;1.50;1.07;;;;;;;;;;20861234;28;20466;-66
2021/06/14 17:06:26;;;;;;;2.75;1.50;;;;;;;;;;20829423;28;20533;-59
2021/06/14 17:16:26;;;;;;;2.13;1.40;;;;;;;;;;20807221;28;20345;-58
2021/06/14 17:26:27;;;;;;;3.13;1.33;;;;;;;;;;20814625;28;20224;-58
2021/06/14 17:36:27;;;;;;;3.60;2.00;;;;;;;;;;20816300;28;20287;-59
2021/06/14 17:46:27;;;;;;;3.75;1.10;;;;;;;;;;20826946;28;20215;-61
2021/06/14 17:56:28;;;;;;;1.55;1.45;;;;;;;;;;20883426;28;20254;-60
2021/06/14 18:06:28;;;;;;;2.45;1.60;;;;;;;;;;20867769;28;20211;-60
2021/06/14 18:16:28;;;;;;;2.10;1.52;;;;;;;;;;20906925;28;20234;-57
2021/06/14 18:26:29;;;;;;;1.40;1.30;;;;;;;;;;20910805;28;20215;-62
2021/06/14 18:36:29;;;;;;;1.83;1.20;;;;;;;;;;20915249;28;20227;-61
2021/06/14 18:46:30;;;;;;;2.30;1.67;;;;;;;;;;20902646;28;20211;-58
2021/06/14 18:56:30;;;;;;;4.40;4.00;;;;;;;;;;20879978;28;20280;-57
2021/06/14 19:06:30;;;;;;;4.93;3.93;;;;;;;;;;20854895;28;20266;-58
2021/06/14 19:16:32;;;;;;;2.53;2.33;;;;;;;;;;20832005;28;20712;-63
2021/06/14 19:26:33;;;;;;;4.03;2.70;;;;;;;;;;20831063;28;20216;-67
2021/06/14 19:36:33;;;;;;;4.27;3.00;;;;;;;;;;20830132;28;20247;-59
2021/06/14 19:46:35;;;;;;;4.70;2.80;;;;;;;;;;20829600;28;20303;-63
2021/06/14 19:56:35;;;;;;;3.37;2.70;;;;;;;;;;20828721;28;20227;-64
2021/06/14 20:06:35;;;;;;;2.90;2.50;;;;;;;;;;20827480;28;20212;-62
2021/06/14 20:16:36;;;;;;;4.43;3.67;;;;;;;;;;20825414;28;20310;-59
2021/06/14 20:26:36;;;;;;;5.20;4.10;;;;;;;;;;20820740;28;20222;-58
2021/06/14 20:36:36;;;;;;;3.93;3.20;;;;;;;;;;20824776;28;20239;-58
2021/06/14 20:46:37;;;;;;;3.23;2.93;;;;;;;;;;20824479;28;20693;-59
2021/06/14 20:56:37;;;;;;;4.53;3.43;;;;;;;;;;20823647;28;20216;-57
2021/06/14 21:06:37;;;;;;;3.60;3.13;;;;;;;;;;20823541;28;20212;-60
2021/06/14 21:16:38;;;;;;;4.93;2.70;;;;;;;;;;20822543;28;20317;-57
2021/06/14 21:26:38;;;;;;;3.40;3.10;;;;;;;;;;20832130;28;20298;-57
2021/06/14 21:36:39;;;;;;;4.93;3.77;;;;;;;;;;20821212;28;20230;-57
2021/06/14 21:46:39;;;;;;;4.03;3.63;;;;;;;;;;20821085;28;20223;-57
2021/06/14 21:56:39;;;;;;;3.30;3.00;;;;;;;;;;20820726;28;20297;-58
2021/06/14 22:06:41;;;;;;;4.13;3.73;;;;;;;;;;20818943;28;20218;-57
2021/06/14 22:16:41;;;;;;;4.90;4.10;;;;;;;;;;20819992;28;20352;-57
2021/06/14 22:26:41;;;;;;;5.57;4.13;;;;;;;;;;20819787;28;20232;-58
2021/06/14 22:36:42;;;;;;;4.00;3.60;;;;;;;;;;20819061;28;20303;-57
2021/06/14 22:46:42;;;;;;;5.37;4.43;;;;;;;;;;20870730;28;20411;-58
2021/06/14 22:56:43;;;;;;;5.63;4.00;;;;;;;;;;20915924;28;20229;-57
2021/06/14 23:06:44;;;;;;;5.20;4.13;;;;;;;;;;20915297;28;20209;-57
2021/06/14 23:16:44;;;;;;;5.30;4.80;;;;;;;;;;20914286;28;20280;-57
2021/06/14 23:26:44;;;;;;;4.90;4.20;;;;;;;;;;20901471;28;20695;-57
2021/06/14 23:36:45;;;;;;;5.27;4.63;;;;;;;;;;20911471;28;20260;-60
2021/06/14 23:46:45;;;;;;;5.07;4.47;;;;;;;;;;20912161;28;20221;-67
2021/06/14 23:56:46;;;;;;;4.37;3.97;;;;;;;;;;20910751;28;20246;-58
